sensor_id;sensor_type;location;lat;lon;timestamp;pressure;altitude;pressure_sealevel;temperature;humidity
85386;BME280;75792;42.686;23.298;2024-03-25T00:00:09;93473.25;;;1.53;95.49
85386;BME280;75792;42.686;23.298;2024-03-25T00:02:37;93484.66;;;1.57;96.02
85386;BME280;75792;42.686;23.298;2024-03-25T00:05:05;93469.56;;;1.64;95.68
85386;BME280;75792;42.686;23.298;2024-03-25T00:07:30;93472.09;;;1.69;96.29
85386;BME280;75792;42.686;23.298;2024-03-25T00:09:56;93464.13;;;1.61;95.40
85386;BME280;75792;42.686;23.298;2024-03-25T00:12:24;93480.00;;;1.54;95.97
85386;BME280;75792;42.686;23.298;2024-03-25T00:14:50;93442.72;;;1.50;96.30
85386;BME280;75792;42.686;23.298;2024-03-25T00:17:15;93447.53;;;1.62;96.01
85386;BME280;75792;42.686;23.298;2024-03-25T00:19:41;93445.13;;;1.70;97.24
85386;BME280;75792;42.686;23.298;2024-03-25T00:22:07;93446.63;;;1.76;97.15
85386;BME280;75792;42.686;23.298;2024-03-25T00:24:33;93440.88;;;1.80;97.26
85386;BME280;75792;42.686;23.298;2024-03-25T00:26:58;93426.97;;;1.70;96.33
85386;BME280;75792;42.686;23.298;2024-03-25T00:29:23;93420.13;;;1.80;96.39
85386;BME280;75792;42.686;23.298;2024-03-25T00:31:49;93426.31;;;1.84;96.23
85386;BME280;75792;42.686;23.298;2024-03-25T00:34:14;93420.78;;;1.90;96.29
85386;BME280;75792;42.686;23.298;2024-03-25T00:36:40;93424.13;;;1.96;95.94
85386;BME280;75792;42.686;23.298;2024-03-25T00:39:05;93428.22;;;2.02;95.71
85386;BME280;75792;42.686;23.298;2024-03-25T00:41:31;93426.53;;;2.11;94.73
85386;BME280;75792;42.686;23.298;2024-03-25T00:43:57;93427.44;;;2.26;93.78
85386;BME280;75792;42.686;23.298;2024-03-25T00:46:22;93419.53;;;2.36;94.06
85386;BME280;75792;42.686;23.298;2024-03-25T00:48:47;93438.66;;;2.40;93.04
85386;BME280;75792;42.686;23.298;2024-03-25T00:51:13;93421.50;;;2.44;93.83
85386;BME280;75792;42.686;23.298;2024-03-25T00:53:38;93425.06;;;2.48;93.49
85386;BME280;75792;42.686;23.298;2024-03-25T00:56:04;93432.03;;;2.53;93.08
85386;BME280;75792;42.686;23.298;2024-03-25T00:58:29;93414.69;;;2.48;93.44
85386;BME280;75792;42.686;23.298;2024-03-25T01:00:55;93430.75;;;2.50;92.72
85386;BME280;75792;42.686;23.298;2024-03-25T01:03:21;93422.91;;;2.55;92.80
85386;BME280;75792;42.686;23.298;2024-03-25T01:05:46;93414.06;;;2.56;92.44
85386;BME280;75792;42.686;23.298;2024-03-25T01:08:11;93393.78;;;2.58;92.20
85386;BME280;75792;42.686;23.298;2024-03-25T01:10:39;93381.88;;;2.57;92.63
85386;BME280;75792;42.686;23.298;2024-03-25T01:13:04;93373.94;;;2.68;92.32
85386;BME280;75792;42.686;23.298;2024-03-25T01:15:29;93364.03;;;2.70;93.70
85386;BME280;75792;42.686;23.298;2024-03-25T01:17:55;93368.09;;;2.76;92.70
85386;BME280;75792;42.686;23.298;2024-03-25T01:20:20;93362.53;;;2.82;93.45
85386;BME280;75792;42.686;23.298;2024-03-25T01:22:46;93365.84;;;2.88;92.70
85386;BME280;75792;42.686;23.298;2024-03-25T01:25:11;93359.31;;;2.91;93.40
85386;BME280;75792;42.686;23.298;2024-03-25T01:27:37;93368.56;;;2.97;92.37
85386;BME280;75792;42.686;23.298;2024-03-25T01:30:02;93374.97;;;3.04;92.38
85386;BME280;75792;42.686;23.298;2024-03-25T01:32:29;93370.72;;;3.08;92.38
85386;BME280;75792;42.686;23.298;2024-03-25T01:34:55;93366.50;;;3.13;92.61
85386;BME280;75792;42.686;23.298;2024-03-25T01:37:21;93384.81;;;3.21;92.80
85386;BME280;75792;42.686;23.298;2024-03-25T01:39:46;93395.63;;;3.28;91.55
85386;BME280;75792;42.686;23.298;2024-03-25T01:42:13;93391.69;;;3.31;92.16
85386;BME280;75792;42.686;23.298;2024-03-25T01:44:38;93391.38;;;3.33;90.99
85386;BME280;75792;42.686;23.298;2024-03-25T01:47:04;93385.41;;;3.32;91.19
85386;BME280;75792;42.686;23.298;2024-03-25T01:49:29;93385.41;;;3.32;91.98
85386;BME280;75792;42.686;23.298;2024-03-25T01:51:57;93376.44;;;3.24;91.58
85386;BME280;75792;42.686;23.298;2024-03-25T01:54:23;93378.28;;;3.24;92.47
85386;BME280;75792;42.686;23.298;2024-03-25T01:56:49;93399.63;;;3.21;93.12
85386;BME280;75792;42.686;23.298;2024-03-25T01:59:15;93398.16;;;3.15;93.44
85386;BME280;75792;42.686;23.298;2024-03-25T02:01:45;93409.19;;;3.06;92.47
85386;BME280;75792;42.686;23.298;2024-03-25T02:04:11;93424.53;;;2.89;91.92
85386;BME280;75792;42.686;23.298;2024-03-25T02:06:38;93413.56;;;2.92;93.69
85386;BME280;75792;42.686;23.298;2024-03-25T02:09:05;93425.09;;;2.86;93.35
85386;BME280;75792;42.686;23.298;2024-03-25T02:11:32;93417.44;;;2.76;93.39
85386;BME280;75792;42.686;23.298;2024-03-25T02:13:57;93431.34;;;2.66;92.34
85386;BME280;75792;42.686;23.298;2024-03-25T02:16:23;93449.94;;;2.54;91.80
85386;BME280;75792;42.686;23.298;2024-03-25T02:18:50;93430.19;;;2.53;92.47
85386;BME280;75792;42.686;23.298;2024-03-25T02:21:16;93405.88;;;2.49;91.61
85386;BME280;75792;42.686;23.298;2024-03-25T02:23:42;93410.63;;;2.42;90.93
85386;BME280;75792;42.686;23.298;2024-03-25T02:26:09;93427.19;;;2.46;91.16
85386;BME280;75792;42.686;23.298;2024-03-25T02:28:35;93412.09;;;2.48;92.06
85386;BME280;75792;42.686;23.298;2024-03-25T02:31:00;93405.88;;;2.49;92.31
85386;BME280;75792;42.686;23.298;2024-03-25T02:33:26;93413.66;;;2.49;91.82
85386;BME280;75792;42.686;23.298;2024-03-25T02:35:51;93418.22;;;2.57;90.94
85386;BME280;75792;42.686;23.298;2024-03-25T02:38:17;93405.16;;;2.62;91.08
85386;BME280;75792;42.686;23.298;2024-03-25T02:40:44;93411.88;;;2.63;90.89
85386;BME280;75792;42.686;23.298;2024-03-25T02:43:10;93417.50;;;2.71;90.86
85386;BME280;75792;42.686;23.298;2024-03-25T02:45:37;93406.56;;;2.74;91.09
85386;BME280;75792;42.686;23.298;2024-03-25T02:48:03;93413.03;;;2.76;91.92
85386;BME280;75792;42.686;23.298;2024-03-25T02:50:28;93423.91;;;2.78;91.44
85386;BME280;75792;42.686;23.298;2024-03-25T02:52:53;93414.78;;;2.81;91.47
85386;BME280;75792;42.686;23.298;2024-03-25T02:55:19;93438.84;;;2.86;91.26
85386;BME280;75792;42.686;23.298;2024-03-25T02:57:44;93434.94;;;2.89;89.20
85386;BME280;75792;42.686;23.298;2024-03-25T03:00:10;93436.75;;;2.89;88.57
85386;BME280;75792;42.686;23.298;2024-03-25T03:02:35;93443.22;;;2.91;88.20
85386;BME280;75792;42.686;23.298;2024-03-25T03:05:01;93435.50;;;2.86;86.67
85386;BME280;75792;42.686;23.298;2024-03-25T03:07:29;93422.00;;;2.84;86.63
85386;BME280;75792;42.686;23.298;2024-03-25T03:09:54;93440.69;;;2.86;87.11
85386;BME280;75792;42.686;23.298;2024-03-25T03:12:20;93437.03;;;2.87;87.77
85386;BME280;75792;42.686;23.298;2024-03-25T03:14:45;93437.84;;;2.82;87.63
85386;BME280;75792;42.686;23.298;2024-03-25T03:17:10;93424.19;;;2.77;87.51
85386;BME280;75792;42.686;23.298;2024-03-25T03:19:36;93437.59;;;2.84;86.63
85386;BME280;75792;42.686;23.298;2024-03-25T03:22:01;93425.88;;;2.86;86.00
85386;BME280;75792;42.686;23.298;2024-03-25T03:24:27;93430.06;;;2.82;86.60
85386;BME280;75792;42.686;23.298;2024-03-25T03:26:53;93434.00;;;2.80;86.14
85386;BME280;75792;42.686;23.298;2024-03-25T03:29:18;93449.38;;;2.95;85.72
85386;BME280;75792;42.686;23.298;2024-03-25T03:31:44;93460.34;;;2.92;86.00
85386;BME280;75792;42.686;23.298;2024-03-25T03:34:09;93477.88;;;3.00;86.41
85386;BME280;75792;42.686;23.298;2024-03-25T03:36:34;93460.19;;;3.02;84.67
85386;BME280;75792;42.686;23.298;2024-03-25T03:39:00;93480.34;;;3.11;84.25
85386;BME280;75792;42.686;23.298;2024-03-25T03:41:25;93456.97;;;3.11;85.12
85386;BME280;75792;42.686;23.298;2024-03-25T03:43:50;93463.91;;;3.15;84.97
85386;BME280;75792;42.686;23.298;2024-03-25T03:46:16;93463.53;;;3.22;84.03
85386;BME280;75792;42.686;23.298;2024-03-25T03:48:41;93484.34;;;3.22;85.00
85386;BME280;75792;42.686;23.298;2024-03-25T03:51:07;93492.06;;;3.27;83.62
85386;BME280;75792;42.686;23.298;2024-03-25T03:53:34;93478.28;;;3.26;84.36
85386;BME280;75792;42.686;23.298;2024-03-25T03:56:00;93482.22;;;3.24;84.77
85386;BME280;75792;42.686;23.298;2024-03-25T03:58:32;93468.75;;;3.22;84.29
85386;BME280;75792;42.686;23.298;2024-03-25T04:00:58;93484.91;;;3.19;84.88
85386;BME280;75792;42.686;23.298;2024-03-25T04:03:24;93490.09;;;3.19;84.82
85386;BME280;75792;42.686;23.298;2024-03-25T04:05:50;93504.16;;;3.18;84.06
85386;BME280;75792;42.686;23.298;2024-03-25T04:08:16;93506.69;;;3.23;84.74
85386;BME280;75792;42.686;23.298;2024-03-25T04:10:43;93505.63;;;3.24;84.34
85386;BME280;75792;42.686;23.298;2024-03-25T04:13:08;93501.50;;;3.23;83.32
85386;BME280;75792;42.686;23.298;2024-03-25T04:15:38;93502.72;;;3.25;82.68
85386;BME280;75792;42.686;23.298;2024-03-25T04:18:04;93496.84;;;3.20;83.25
85386;BME280;75792;42.686;23.298;2024-03-25T04:20:32;93495.88;;;3.16;83.27
85386;BME280;75792;42.686;23.298;2024-03-25T04:23:00;93530.91;;;3.18;81.66
85386;BME280;75792;42.686;23.298;2024-03-25T04:25:26;93522.81;;;3.20;82.21
85386;BME280;75792;42.686;23.298;2024-03-25T04:27:51;93533.22;;;3.20;83.06
85386;BME280;75792;42.686;23.298;2024-03-25T04:30:16;93517.63;;;3.20;83.09
85386;BME280;75792;42.686;23.298;2024-03-25T04:32:42;93518.63;;;3.24;82.95
85386;BME280;75792;42.686;23.298;2024-03-25T04:35:08;93530.91;;;3.18;83.04
85386;BME280;75792;42.686;23.298;2024-03-25T04:37:34;93543.63;;;3.20;83.50
85386;BME280;75792;42.686;23.298;2024-03-25T04:39:59;93554.00;;;3.20;82.25
85386;BME280;75792;42.686;23.298;2024-03-25T04:42:25;93565.97;;;3.21;82.02
85386;BME280;75792;42.686;23.298;2024-03-25T04:44:51;93564.91;;;3.22;82.20
85386;BME280;75792;42.686;23.298;2024-03-25T04:47:17;93576.38;;;3.21;82.53
85386;BME280;75792;42.686;23.298;2024-03-25T04:49:43;93576.38;;;3.21;82.04
85386;BME280;75792;42.686;23.298;2024-03-25T04:52:09;93568.56;;;3.21;82.12
85386;BME280;75792;42.686;23.298;2024-03-25T04:54:35;93563.94;;;3.18;82.47
85386;BME280;75792;42.686;23.298;2024-03-25T04:57:00;93569.06;;;3.23;81.12
85386;BME280;75792;42.686;23.298;2024-03-25T04:59:26;93573.69;;;3.26;81.79
85386;BME280;75792;42.686;23.298;2024-03-25T05:01:51;93569.75;;;3.28;82.08
85386;BME280;75792;42.686;23.298;2024-03-25T05:04:18;93568.50;;;3.26;81.46
85386;BME280;75792;42.686;23.298;2024-03-25T05:06:43;93571.56;;;3.28;81.25
85386;BME280;75792;42.686;23.298;2024-03-25T05:09:09;93582.97;;;3.32;80.61
85386;BME280;75792;42.686;23.298;2024-03-25T05:11:35;93600.09;;;3.33;79.82
85386;BME280;75792;42.686;23.298;2024-03-25T05:14:00;93589.69;;;3.33;80.22
85386;BME280;75792;42.686;23.298;2024-03-25T05:16:26;93569.19;;;3.32;80.37
85386;BME280;75792;42.686;23.298;2024-03-25T05:18:51;93573.34;;;3.33;80.84
85386;BME280;75792;42.686;23.298;2024-03-25T05:21:17;93580.88;;;3.34;80.14
85386;BME280;75792;42.686;23.298;2024-03-25T05:23:42;93623.44;;;3.38;79.94
85386;BME280;75792;42.686;23.298;2024-03-25T05:26:07;93592.81;;;3.35;80.24
85386;BME280;75792;42.686;23.298;2024-03-25T05:28:33;93590.19;;;3.35;79.57
85386;BME280;75792;42.686;23.298;2024-03-25T05:31:08;93593.56;;;3.36;80.09
85386;BME280;75792;42.686;23.298;2024-03-25T05:33:33;93597.66;;;3.42;79.96
85386;BME280;75792;42.686;23.298;2024-03-25T05:35:59;93602.31;;;3.45;79.79
85386;BME280;75792;42.686;23.298;2024-03-25T05:38:26;93606.78;;;3.39;80.04
85386;BME280;75792;42.686;23.298;2024-03-25T05:40:51;93588.38;;;3.36;80.04
85386;BME280;75792;42.686;23.298;2024-03-25T05:43:16;93614.03;;;3.42;79.94
85386;BME280;75792;42.686;23.298;2024-03-25T05:45:50;93611.06;;;3.30;78.62
85386;BME280;75792;42.686;23.298;2024-03-25T05:48:15;93634.94;;;3.32;79.30
85386;BME280;75792;42.686;23.298;2024-03-25T05:50:41;93624.00;;;3.35;78.38
85386;BME280;75792;42.686;23.298;2024-03-25T05:53:06;93624.94;;;3.44;79.32
85386;BME280;75792;42.686;23.298;2024-03-25T05:55:32;93642.78;;;3.51;78.81
85386;BME280;75792;42.686;23.298;2024-03-25T05:57:57;93646.50;;;3.64;78.65
85386;BME280;75792;42.686;23.298;2024-03-25T06:00:22;93643.84;;;3.69;77.31
85386;BME280;75792;42.686;23.298;2024-03-25T06:02:49;93647.06;;;3.80;77.27
85386;BME280;75792;42.686;23.298;2024-03-25T06:05:15;93687.69;;;3.75;78.25
85386;BME280;75792;42.686;23.298;2024-03-25T06:07:40;93651.56;;;3.74;78.16
85386;BME280;75792;42.686;23.298;2024-03-25T06:10:06;93646.38;;;3.74;78.31
85386;BME280;75792;42.686;23.298;2024-03-25T06:12:31;93659.00;;;3.62;77.91
85386;BME280;75792;42.686;23.298;2024-03-25T06:14:57;93655.38;;;3.63;77.41
85386;BME280;75792;42.686;23.298;2024-03-25T06:17:22;93656.53;;;3.70;77.50
85386;BME280;75792;42.686;23.298;2024-03-25T06:19:47;93666.19;;;3.70;77.58
85386;BME280;75792;42.686;23.298;2024-03-25T06:22:13;93679.50;;;3.68;76.26
85386;BME280;75792;42.686;23.298;2024-03-25T06:24:38;93683.44;;;3.85;76.61
85386;BME280;75792;42.686;23.298;2024-03-25T06:27:04;93671.31;;;3.94;76.25
85386;BME280;75792;42.686;23.298;2024-03-25T06:29:29;93672.94;;;4.09;75.17
85386;BME280;75792;42.686;23.298;2024-03-25T06:31:54;93681.09;;;4.21;75.76
85386;BME280;75792;42.686;23.298;2024-03-25T06:34:38;93678.63;;;4.30;74.40
85386;BME280;75792;42.686;23.298;2024-03-25T06:37:04;93685.16;;;4.27;74.08
85386;BME280;75792;42.686;23.298;2024-03-25T06:39:30;93687.38;;;4.34;74.26
85386;BME280;75792;42.686;23.298;2024-03-25T06:41:55;93707.78;;;4.46;73.97
85386;BME280;75792;42.686;23.298;2024-03-25T06:44:20;93722.28;;;4.52;74.27
85386;BME280;75792;42.686;23.298;2024-03-25T06:46:46;93700.78;;;4.60;73.45
85386;BME280;75792;42.686;23.298;2024-03-25T06:49:11;93709.81;;;4.49;73.68
85386;BME280;75792;42.686;23.298;2024-03-25T06:51:36;93709.19;;;4.57;72.26
85386;BME280;75792;42.686;23.298;2024-03-25T06:54:02;93722.44;;;4.60;73.30
85386;BME280;75792;42.686;23.298;2024-03-25T06:56:28;93729.84;;;4.67;73.98
85386;BME280;75792;42.686;23.298;2024-03-25T06:58:53;93714.03;;;4.63;73.42
85386;BME280;75792;42.686;23.298;2024-03-25T07:01:19;93723.91;;;4.80;72.58
85386;BME280;75792;42.686;23.298;2024-03-25T07:03:44;93723.50;;;4.73;71.58
85386;BME280;75792;42.686;23.298;2024-03-25T07:06:09;93725.72;;;4.66;70.55
85386;BME280;75792;42.686;23.298;2024-03-25T07:08:35;93721.38;;;4.75;70.74
85386;BME280;75792;42.686;23.298;2024-03-25T07:11:00;93724.91;;;4.84;70.98
85386;BME280;75792;42.686;23.298;2024-03-25T07:13:25;93712.94;;;4.97;70.71
85386;BME280;75792;42.686;23.298;2024-03-25T07:15:51;93739.22;;;5.01;68.52
85386;BME280;75792;42.686;23.298;2024-03-25T07:18:16;93747.28;;;4.85;69.28
85386;BME280;75792;42.686;23.298;2024-03-25T07:20:43;93759.56;;;4.99;68.85
85386;BME280;75792;42.686;23.298;2024-03-25T07:23:09;93712.00;;;5.07;69.69
85386;BME280;75792;42.686;23.298;2024-03-25T07:25:35;93734.41;;;5.08;69.37
85386;BME280;75792;42.686;23.298;2024-03-25T07:28:01;93744.25;;;5.11;69.35
85386;BME280;75792;42.686;23.298;2024-03-25T07:30:26;93751.66;;;5.04;69.12
85386;BME280;75792;42.686;23.298;2024-03-25T07:32:56;93739.22;;;5.01;70.13
85386;BME280;75792;42.686;23.298;2024-03-25T07:35:21;93741.56;;;5.16;68.69
85386;BME280;75792;42.686;23.298;2024-03-25T07:37:47;93742.56;;;5.48;68.69
85386;BME280;75792;42.686;23.298;2024-03-25T07:40:16;93735.22;;;5.64;67.35
85386;BME280;75792;42.686;23.298;2024-03-25T07:42:42;93735.19;;;5.22;67.58
85386;BME280;75792;42.686;23.298;2024-03-25T07:45:07;93737.03;;;5.36;68.12
85386;BME280;75792;42.686;23.298;2024-03-25T07:47:33;93752.97;;;5.34;68.00
85386;BME280;75792;42.686;23.298;2024-03-25T07:49:59;93731.34;;;5.61;67.06
85386;BME280;75792;42.686;23.298;2024-03-25T07:52:25;93748.91;;;5.83;65.85
85386;BME280;75792;42.686;23.298;2024-03-25T07:54:50;93751.03;;;5.95;66.67
85386;BME280;75792;42.686;23.298;2024-03-25T07:57:17;93751.69;;;5.87;66.42
85386;BME280;75792;42.686;23.298;2024-03-25T07:59:42;93752.78;;;6.00;64.38
85386;BME280;75792;42.686;23.298;2024-03-25T08:02:08;93749.09;;;5.87;65.92
85386;BME280;75792;42.686;23.298;2024-03-25T08:04:33;93725.13;;;5.99;66.64
85386;BME280;75792;42.686;23.298;2024-03-25T08:06:58;93782.56;;;5.85;66.20
85386;BME280;75792;42.686;23.298;2024-03-25T08:09:24;93774.44;;;5.59;64.86
85386;BME280;75792;42.686;23.298;2024-03-25T08:11:49;93742.13;;;5.68;64.75
85386;BME280;75792;42.686;23.298;2024-03-25T08:14:15;93732.66;;;5.86;65.32
85386;BME280;75792;42.686;23.298;2024-03-25T08:16:40;93749.50;;;5.94;64.78
85386;BME280;75792;42.686;23.298;2024-03-25T08:19:06;93764.38;;;6.07;64.83
85386;BME280;75792;42.686;23.298;2024-03-25T08:21:31;93761.22;;;6.33;64.14
85386;BME280;75792;42.686;23.298;2024-03-25T08:23:56;93778.16;;;6.22;63.36
85386;BME280;75792;42.686;23.298;2024-03-25T08:26:22;93764.19;;;6.40;63.29
85386;BME280;75792;42.686;23.298;2024-03-25T08:28:47;93785.09;;;6.40;62.71
85386;BME280;75792;42.686;23.298;2024-03-25T08:31:14;93768.59;;;6.31;62.75
85386;BME280;75792;42.686;23.298;2024-03-25T08:33:40;93789.09;;;6.24;63.71
85386;BME280;75792;42.686;23.298;2024-03-25T08:36:05;93784.53;;;6.43;63.59
85386;BME280;75792;42.686;23.298;2024-03-25T08:38:31;93784.44;;;6.93;62.02
85386;BME280;75792;42.686;23.298;2024-03-25T08:40:56;93800.53;;;6.87;59.86
85386;BME280;75792;42.686;23.298;2024-03-25T08:43:22;93817.59;;;6.84;59.99
85386;BME280;75792;42.686;23.298;2024-03-25T08:45:47;93786.28;;;6.70;59.41
85386;BME280;75792;42.686;23.298;2024-03-25T08:48:12;93806.22;;;6.66;59.47
85386;BME280;75792;42.686;23.298;2024-03-25T08:50:38;93785.19;;;6.35;61.24
85386;BME280;75792;42.686;23.298;2024-03-25T08:53:04;93805.44;;;6.66;61.50
85386;BME280;75792;42.686;23.298;2024-03-25T08:55:30;93809.13;;;6.65;61.45
85386;BME280;75792;42.686;23.298;2024-03-25T08:57:55;93800.53;;;6.87;60.23
85386;BME280;75792;42.686;23.298;2024-03-25T09:00:24;93794.53;;;6.86;60.34
85386;BME280;75792;42.686;23.298;2024-03-25T09:02:49;93799.28;;;7.07;60.31
85386;BME280;75792;42.686;23.298;2024-03-25T09:05:14;93789.69;;;6.93;59.58
85386;BME280;75792;42.686;23.298;2024-03-25T09:07:44;93784.91;;;7.18;59.23
85386;BME280;75792;42.686;23.298;2024-03-25T09:10:09;93789.41;;;7.03;60.05
85386;BME280;75792;42.686;23.298;2024-03-25T09:12:53;93801.53;;;6.77;60.29
85386;BME280;75792;42.686;23.298;2024-03-25T09:15:19;93816.28;;;6.73;61.23
85386;BME280;75792;42.686;23.298;2024-03-25T09:17:44;93811.03;;;6.73;61.78
85386;BME280;75792;42.686;23.298;2024-03-25T09:20:10;93822.34;;;6.82;60.25
85386;BME280;75792;42.686;23.298;2024-03-25T09:22:44;93816.28;;;6.73;59.15
85386;BME280;75792;42.686;23.298;2024-03-25T09:25:10;93815.31;;;6.69;60.07
85386;BME280;75792;42.686;23.298;2024-03-25T09:27:36;93824.19;;;6.81;59.23
85386;BME280;75792;42.686;23.298;2024-03-25T09:30:02;93829.00;;;6.88;59.52
85386;BME280;75792;42.686;23.298;2024-03-25T09:32:29;93816.38;;;6.90;59.49
85386;BME280;75792;42.686;23.298;2024-03-25T09:34:56;93808.66;;;6.85;58.81
85386;BME280;75792;42.686;23.298;2024-03-25T09:37:21;93819.00;;;6.90;59.39
85386;BME280;75792;42.686;23.298;2024-03-25T09:39:47;93842.97;;;6.83;58.55
85386;BME280;75792;42.686;23.298;2024-03-25T09:42:15;93810.31;;;6.58;60.09
85386;BME280;75792;42.686;23.298;2024-03-25T09:44:41;93803.81;;;6.92;59.28
85386;BME280;75792;42.686;23.298;2024-03-25T09:47:06;93819.84;;;6.99;58.44
85386;BME280;75792;42.686;23.298;2024-03-25T09:49:33;93808.84;;;7.11;58.23
85386;BME280;75792;42.686;23.298;2024-03-25T09:51:59;93808.69;;;7.08;59.01
85386;BME280;75792;42.686;23.298;2024-03-25T09:54:25;93800.13;;;6.93;59.26
85386;BME280;75792;42.686;23.298;2024-03-25T09:56:50;93805.28;;;7.07;59.25
85386;BME280;75792;42.686;23.298;2024-03-25T09:59:16;93815.09;;;7.24;59.11
85386;BME280;75792;42.686;23.298;2024-03-25T10:01:42;93817.47;;;7.12;58.22
85386;BME280;75792;42.686;23.298;2024-03-25T10:04:08;93803.00;;;7.37;56.93
85386;BME280;75792;42.686;23.298;2024-03-25T10:06:35;93813.97;;;7.47;57.24
85386;BME280;75792;42.686;23.298;2024-03-25T10:09:04;93809.00;;;7.37;56.39
85386;BME280;75792;42.686;23.298;2024-03-25T10:11:30;93826.47;;;7.51;56.17
85386;BME280;75792;42.686;23.298;2024-03-25T10:13:57;93841.16;;;7.38;55.47
85386;BME280;75792;42.686;23.298;2024-03-25T10:16:22;93823.41;;;7.26;55.48
85386;BME280;75792;42.686;23.298;2024-03-25T10:18:48;93820.59;;;7.45;54.63
85386;BME280;75792;42.686;23.298;2024-03-25T10:21:13;93816.38;;;7.66;55.04
85386;BME280;75792;42.686;23.298;2024-03-25T10:23:40;93819.09;;;7.30;55.23
85386;BME280;75792;42.686;23.298;2024-03-25T10:26:07;93836.56;;;7.66;54.54
85386;BME280;75792;42.686;23.298;2024-03-25T10:28:33;93828.66;;;7.57;54.12
85386;BME280;75792;42.686;23.298;2024-03-25T10:31:04;93814.47;;;7.89;53.53
85386;BME280;75792;42.686;23.298;2024-03-25T10:33:31;93828.97;;;7.96;51.53
85386;BME280;75792;42.686;23.298;2024-03-25T10:35:57;93824.19;;;7.98;50.17
85386;BME280;75792;42.686;23.298;2024-03-25T10:38:25;93806.50;;;8.12;51.09
85386;BME280;75792;42.686;23.298;2024-03-25T10:40:54;93833.16;;;8.05;49.93
85386;BME280;75792;42.686;23.298;2024-03-25T10:43:21;93815.19;;;8.21;48.98
85386;BME280;75792;42.686;23.298;2024-03-25T10:45:54;93815.13;;;8.04;49.60
85386;BME280;75792;42.686;23.298;2024-03-25T10:48:31;93821.75;;;8.01;51.29
85386;BME280;75792;42.686;23.298;2024-03-25T10:51:01;93810.09;;;8.25;49.29
85386;BME280;75792;42.686;23.298;2024-03-25T10:53:28;93809.94;;;8.38;48.25
85386;BME280;75792;42.686;23.298;2024-03-25T10:55:55;93818.75;;;8.34;48.78
85386;BME280;75792;42.686;23.298;2024-03-25T10:58:24;93811.44;;;8.05;47.96
85386;BME280;75792;42.686;23.298;2024-03-25T11:00:52;93831.78;;;8.08;49.91
85386;BME280;75792;42.686;23.298;2024-03-25T11:03:22;93794.91;;;7.96;48.86
85386;BME280;75792;42.686;23.298;2024-03-25T11:05:48;93833.31;;;8.00;49.31
85386;BME280;75792;42.686;23.298;2024-03-25T11:08:15;93811.59;;;8.08;48.83
85386;BME280;75792;42.686;23.298;2024-03-25T11:10:45;93810.38;;;8.14;48.68
85386;BME280;75792;42.686;23.298;2024-03-25T11:13:17;93815.25;;;8.56;47.97
85386;BME280;75792;42.686;23.298;2024-03-25T11:15:44;93803.09;;;8.69;48.98
85386;BME280;75792;42.686;23.298;2024-03-25T11:18:17;93832.28;;;8.19;50.33
85386;BME280;75792;42.686;23.298;2024-03-25T11:20:43;93817.19;;;8.33;51.27
85386;BME280;75792;42.686;23.298;2024-03-25T11:23:10;93811.88;;;8.90;50.34
85386;BME280;75792;42.686;23.298;2024-03-25T11:25:37;93797.38;;;8.75;52.00
85386;BME280;75792;42.686;23.298;2024-03-25T11:28:03;93831.50;;;8.18;54.01
85386;BME280;75792;42.686;23.298;2024-03-25T11:30:29;93866.41;;;7.96;54.46
85386;BME280;75792;42.686;23.298;2024-03-25T11:32:55;93839.19;;;7.75;55.91
85386;BME280;75792;42.686;23.298;2024-03-25T11:35:21;93840.91;;;7.79;55.71
85386;BME280;75792;42.686;23.298;2024-03-25T11:37:47;93882.84;;;7.57;55.48
85386;BME280;75792;42.686;23.298;2024-03-25T11:40:13;93822.19;;;7.95;56.42
85386;BME280;75792;42.686;23.298;2024-03-25T11:42:40;93813.25;;;7.96;54.74
85386;BME280;75792;42.686;23.298;2024-03-25T11:45:07;93817.69;;;8.44;54.56
85386;BME280;75792;42.686;23.298;2024-03-25T11:47:33;93890.66;;;8.42;53.39
85386;BME280;75792;42.686;23.298;2024-03-25T11:49:58;93881.75;;;8.20;54.61
85386;BME280;75792;42.686;23.298;2024-03-25T11:52:29;93874.09;;;8.32;54.48
85386;BME280;75792;42.686;23.298;2024-03-25T11:54:55;93848.69;;;8.02;53.09
85386;BME280;75792;42.686;23.298;2024-03-25T11:57:22;93820.94;;;7.83;52.95
85386;BME280;75792;42.686;23.298;2024-03-25T11:59:48;93820.09;;;8.14;53.07
85386;BME280;75792;42.686;23.298;2024-03-25T12:02:15;93833.47;;;8.61;51.29
85386;BME280;75792;42.686;23.298;2024-03-25T12:04:44;93837.81;;;8.92;51.13
85386;BME280;75792;42.686;23.298;2024-03-25T12:07:14;93788.31;;;9.46;47.61
85386;BME280;75792;42.686;23.298;2024-03-25T12:09:39;93853.94;;;9.63;48.33
85386;BME280;75792;42.686;23.298;2024-03-25T12:12:24;93845.31;;;10.01;45.85
85386;BME280;75792;42.686;23.298;2024-03-25T12:14:51;93889.91;;;10.19;47.15
85386;BME280;75792;42.686;23.298;2024-03-25T12:17:18;93852.81;;;9.82;46.32
85386;BME280;75792;42.686;23.298;2024-03-25T12:19:44;93822.16;;;10.24;46.50
85386;BME280;75792;42.686;23.298;2024-03-25T12:22:10;93820.22;;;10.42;46.40
85386;BME280;75792;42.686;23.298;2024-03-25T12:24:35;93839.78;;;11.71;43.23
85386;BME280;75792;42.686;23.298;2024-03-25T12:27:01;93842.72;;;12.15;41.34
85386;BME280;75792;42.686;23.298;2024-03-25T12:29:28;93830.41;;;12.96;39.57
85386;BME280;75792;42.686;23.298;2024-03-25T12:31:57;93855.19;;;12.91;38.96
85386;BME280;75792;42.686;23.298;2024-03-25T12:34:26;93827.22;;;12.38;40.19
85386;BME280;75792;42.686;23.298;2024-03-25T12:36:51;93836.28;;;13.17;38.40
85386;BME280;75792;42.686;23.298;2024-03-25T12:39:17;93836.28;;;12.65;39.72
85386;BME280;75792;42.686;23.298;2024-03-25T12:41:44;93846.50;;;11.80;41.35
85386;BME280;75792;42.686;23.298;2024-03-25T12:44:12;93854.41;;;9.57;46.37
85386;BME280;75792;42.686;23.298;2024-03-25T12:46:38;93844.59;;;10.22;44.32
85386;BME280;75792;42.686;23.298;2024-03-25T12:49:05;93845.78;;;9.39;46.80
85386;BME280;75792;42.686;23.298;2024-03-25T12:51:31;93843.03;;;12.38;39.01
85386;BME280;75792;42.686;23.298;2024-03-25T12:53:57;93861.94;;;12.40;38.75